Time;durP1;ratioP1;P1;durP2;ratioP2;P2;SDS_P1;SDS_P2;PMS_P1;PMS_P2;Temp;Humidity;BMP_temperature;BMP_pressure;BME280_temperature;BME280_humidity;BME280_pressure;Samples;Min_cycle;Max_cycle;Signal;HPM_P1;HPM_P2
2023/09/02 00:06:15;;;;;;;5.4;3.4;;;;;;;17.35;86.37;;;;;
2023/09/02 00:17:15;;;;;;;6.3;3.3;;;;;;;17.13;88.2;;;;;
2023/09/02 00:27:15;;;;;;;6.3;3.3;;;;;;;17.03;89.26;;;;;
2023/09/02 00:38:15;;;;;;;6.3;3.3;;;;;;;16.99;89.76;;;;;
2023/09/02 00:49:15;;;;;;;4.5;2.5;;;;;;;16.96;90.24;;;;;
2023/09/02 00:59:16;;;;;;;4.5;2.5;;;;;;;16.99;89.88;;;;;
2023/09/02 01:10:15;;;;;;;4.5;2.5;;;;;;;17.13;89.1;;;;;
2023/09/02 01:21:15;;;;;;;6.2;3.1;;;;;;;17.09;89.4;;;;;
2023/09/02 01:32:15;;;;;;;6.2;3.1;;;;;;;16.97;90.19;;;;;
2023/09/02 01:42:15;;;;;;;5.1;2.7;;;;;;;17.05;90.27;;;;;
2023/09/02 01:53:15;;;;;;;5.1;2.7;;;;;;;17.09;90.32;;;;;
2023/09/02 02:04:15;;;;;;;5.1;2.7;;;;;;;17.13;89.82;;;;;
2023/09/02 02:14:16;;;;;;;4.8;2.4;;;;;;;17.18;89.57;;;;;
2023/09/02 02:25:15;;;;;;;4.8;2.4;;;;;;;17.09;89.68;;;;;
2023/09/02 02:36:16;;;;;;;4.8;2.4;;;;;;;17.13;89.55;;;;;
2023/09/02 02:46:15;;;;;;;4.6;2.4;;;;;;;17.03;89.65;;;;;
2023/09/02 02:57:16;;;;;;;4.6;2.4;;;;;;;16.93;90.27;;;;;
2023/09/02 03:08:15;;;;;;;4.6;2.4;;;;;;;16.9;90.94;;;;;
2023/09/02 03:19:15;;;;;;;4.4;2.4;;;;;;;16.82;91.04;;;;;
2023/09/02 03:29:15;;;;;;;4.4;2.4;;;;;;;16.92;90.68;;;;;
2023/09/02 03:39:16;;;;;;;4.4;2.4;;;;;;;16.92;90.31;;;;;
2023/09/02 03:50:16;;;;;;;5.1;2.8;;;;;;;17.03;90.16;;;;;
2023/09/02 04:01:15;;;;;;;5.1;2.8;;;;;;;16.96;89.95;;;;;
2023/09/02 04:11:15;;;;;;;5.1;2.8;;;;;;;17.04;89.58;;;;;
2023/09/02 04:22:15;;;;;;;7.2;2.9;;;;;;;17;89.12;;;;;
2023/09/02 04:32:15;;;;;;;7.2;2.9;;;;;;;17.04;89.06;;;;;
2023/09/02 04:42:15;;;;;;;5;2.5;;;;;;;17.13;89.73;;;;;
2023/09/02 04:53:15;;;;;;;5;2.5;;;;;;;17.32;89.65;;;;;
2023/09/02 05:04:15;;;;;;;5;2.5;;;;;;;17.41;89.83;;;;;
2023/09/02 05:15:15;;;;;;;6.9;3.7;;;;;;;17.34;90.23;;;;;
2023/09/02 05:26:15;;;;;;;6.9;3.7;;;;;;;17.83;89.21;;;;;
2023/09/02 05:36:16;;;;;;;6.9;3.7;;;;;;;17.68;89.29;;;;;
2023/09/02 05:47:15;;;;;;;7.2;4.5;;;;;;;17.98;89.03;;;;;
2023/09/02 05:57:15;;;;;;;7.2;4.5;;;;;;;17.96;88.42;;;;;
2023/09/02 06:08:17;;;;;;;7.2;4.5;;;;;;;18.19;88.44;;;;;
2023/09/02 06:18:15;;;;;;;6.6;4;;;;;;;18.44;87.84;;;;;
2023/09/02 06:28:15;;;;;;;6.6;4;;;;;;;18.45;87.07;;;;;
2023/09/02 06:38:16;;;;;;;6.6;4;;;;;;;18.74;86.68;;;;;
2023/09/02 06:49:16;;;;;;;4.8;2.4;;;;;;;18.73;86.63;;;;;
2023/09/02 06:59:15;;;;;;;4.8;2.4;;;;;;;19.03;86.41;;;;;
2023/09/02 07:10:17;;;;;;;4.8;2.4;;;;;;;19.15;85.35;;;;;
2023/09/02 07:20:15;;;;;;;4.7;2.5;;;;;;;19.15;85.12;;;;;
2023/09/02 07:30:16;;;;;;;4.7;2.5;;;;;;;19.3;85.44;;;;;
2023/09/02 07:41:16;;;;;;;4.7;2.5;;;;;;;19.8;83.86;;;;;
2023/09/02 07:51:16;;;;;;;8.4;5.5;;;;;;;20.01;83.48;;;;;
2023/09/02 08:02:16;;;;;;;8.4;5.5;;;;;;;20.32;81.39;;;;;
2023/09/02 08:13:15;;;;;;;8.8;6.8;;;;;;;20.48;81.43;;;;;
2023/09/02 08:23:16;;;;;;;8.8;6.8;;;;;;;20.46;80.4;;;;;
2023/09/02 08:34:16;;;;;;;8.8;6.8;;;;;;;20.02;82.04;;;;;
2023/09/02 08:45:16;;;;;;;9.2;6.7;;;;;;;20.09;82.14;;;;;
2023/09/02 08:56:16;;;;;;;9.2;6.7;;;;;;;20.51;81.28;;;;;
2023/09/02 09:07:16;;;;;;;9.2;6.7;;;;;;;20.82;79.17;;;;;
2023/09/02 09:17:16;;;;;;;7.2;4.8;;;;;;;20.71;77.97;;;;;
2023/09/02 09:28:16;;;;;;;7.2;4.8;;;;;;;20.41;80.36;;;;;
2023/09/02 09:38:17;;;;;;;7.2;4.8;;;;;;;20.95;77.18;;;;;
2023/09/02 09:48:16;;;;;;;5.8;3.4;;;;;;;21.32;76.17;;;;;
2023/09/02 09:59:16;;;;;;;5.8;3.4;;;;;;;21.75;73.58;;;;;
2023/09/02 10:10:16;;;;;;;5.8;3.4;;;;;;;21.77;71.35;;;;;
2023/09/02 10:20:16;;;;;;;3.3;1.6;;;;;;;22.4;68.31;;;;;
2023/09/02 10:30:16;;;;;;;3.3;1.6;;;;;;;22.47;69.3;;;;;
2023/09/02 10:41:16;;;;;;;3.3;1.6;;;;;;;23.07;67.19;;;;;
2023/09/02 10:51:16;;;;;;;3.6;1.5;;;;;;;23.23;66.8;;;;;
2023/09/02 11:01:16;;;;;;;3.6;1.5;;;;;;;22.84;68.47;;;;;
2023/09/02 11:11:16;;;;;;;3.6;1.5;;;;;;;23.06;67;;;;;
2023/09/02 11:21:16;;;;;;;3.6;1.7;;;;;;;22.69;67.92;;;;;
2023/09/02 11:31:16;;;;;;;3.6;1.7;;;;;;;23.2;67.61;;;;;
2023/09/02 11:42:16;;;;;;;4.8;2.2;;;;;;;23.62;66.14;;;;;
2023/09/02 11:52:16;;;;;;;4.8;2.2;;;;;;;23.8;64.88;;;;;
2023/09/02 12:03:17;;;;;;;4.8;2.2;;;;;;;23.77;63.86;;;;;
2023/09/02 12:13:16;;;;;;;3.8;2.1;;;;;;;23.78;63.87;;;;;
2023/09/02 12:23:16;;;;;;;3.8;2.1;;;;;;;24.03;63.44;;;;;
2023/09/02 12:34:16;;;;;;;3.8;2.1;;;;;;;24.58;61.4;;;;;
2023/09/02 12:44:16;;;;;;;5.9;2.8;;;;;;;24.3;62.45;;;;;
2023/09/02 12:54:16;;;;;;;5.9;2.8;;;;;;;24.14;63.19;;;;;
2023/09/02 13:04:16;;;;;;;5.9;2.8;;;;;;;24.33;62.59;;;;;
2023/09/02 13:15:16;;;;;;;4.7;2.4;;;;;;;24.11;62.57;;;;;
2023/09/02 13:25:16;;;;;;;4.7;2.4;;;;;;;24.14;61.4;;;;;
2023/09/02 13:36:16;;;;;;;4.7;2.4;;;;;;;24.42;58.53;;;;;
2023/09/02 13:47:16;;;;;;;3.7;2;;;;;;;23.74;58.92;;;;;
2023/09/02 13:57:16;;;;;;;3.7;2;;;;;;;23.42;60.3;;;;;
2023/09/02 14:07:16;;;;;;;3.7;2;;;;;;;23.59;60.66;;;;;
2023/09/02 14:17:16;;;;;;;3.1;1.7;;;;;;;23.79;60.3;;;;;
2023/09/02 14:28:16;;;;;;;3.1;1.7;;;;;;;24.43;58.56;;;;;
2023/09/02 14:38:16;;;;;;;3.1;1.7;;;;;;;24.1;56.99;;;;;
2023/09/02 14:49:16;;;;;;;3.2;1.8;;;;;;;23.93;57.75;;;;;
2023/09/02 15:00:16;;;;;;;3.2;1.8;;;;;;;24.33;56.26;;;;;
2023/09/02 15:11:16;;;;;;;3.2;1.8;;;;;;;25.14;54.85;;;;;
2023/09/02 15:21:16;;;;;;;2.9;1.6;;;;;;;25.5;53.94;;;;;
2023/09/02 15:31:17;;;;;;;2.9;1.6;;;;;;;26.91;52.82;;;;;
2023/09/02 15:42:16;;;;;;;5;2.2;;;;;;;28.12;48.99;;;;;
2023/09/02 15:52:16;;;;;;;5;2.2;;;;;;;27.86;50.52;;;;;
2023/09/02 16:03:16;;;;;;;5;2.2;;;;;;;30.09;43.88;;;;;
2023/09/02 16:13:17;;;;;;;3.7;1.6;;;;;;;28.75;45.84;;;;;
2023/09/02 16:24:16;;;;;;;3.7;1.6;;;;;;;27.79;49.79;;;;;
2023/09/02 16:34:16;;;;;;;3.7;1.6;;;;;;;26.56;55.68;;;;;
2023/09/02 16:45:16;;;;;;;6.4;3.3;;;;;;;24.82;58.81;;;;;
2023/09/02 16:56:16;;;;;;;6.4;3.3;;;;;;;23.3;63.13;;;;;
2023/09/02 17:07:16;;;;;;;6.4;3.3;;;;;;;22.17;65.36;;;;;
2023/09/02 17:17:16;;;;;;;4.6;2.9;;;;;;;21.27;67.11;;;;;
2023/09/02 17:28:16;;;;;;;4.6;2.9;;;;;;;20.42;70.07;;;;;
2023/09/02 17:38:16;;;;;;;4.6;2.9;;;;;;;19.74;72.77;;;;;
2023/09/02 17:48:16;;;;;;;10.6;7.6;;;;;;;19.19;75.02;;;;;
2023/09/02 17:59:16;;;;;;;10.6;7.6;;;;;;;18.84;77.72;;;;;
2023/09/02 18:09:17;;;;;;;10.6;7.6;;;;;;;18.53;78.08;;;;;
2023/09/02 18:20:16;;;;;;;10.4;6.1;;;;;;;18.16;80.06;;;;;
2023/09/02 18:30:16;;;;;;;10.4;6.1;;;;;;;17.93;81.87;;;;;
2023/09/02 18:41:18;;;;;;;10.4;6.1;;;;;;;17.67;83.02;;;;;
2023/09/02 18:51:16;;;;;;;37.1;31.2;;;;;;;17.41;83.22;;;;;
2023/09/02 19:01:16;;;;;;;37.1;31.2;;;;;;;17.23;84.1;;;;;
2023/09/02 19:12:16;;;;;;;37.1;31.2;;;;;;;17.04;85.12;;;;;
2023/09/02 19:22:16;;;;;;;14.3;10.6;;;;;;;16.88;84.98;;;;;
2023/09/02 19:32:16;;;;;;;14.3;10.6;;;;;;;16.7;84.53;;;;;
2023/09/02 19:43:16;;;;;;;12.3;9.4;;;;;;;16.66;85.51;;;;;
2023/09/02 19:53:16;;;;;;;12.3;9.4;;;;;;;16.58;86;;;;;
2023/09/02 20:03:17;;;;;;;12.3;9.4;;;;;;;16.58;85.68;;;;;
2023/09/02 20:14:16;;;;;;;9.4;6.7;;;;;;;16.59;85.09;;;;;
2023/09/02 20:24:19;;;;;;;9.4;6.7;;;;;;;16.5;86.52;;;;;
2023/09/02 20:35:16;;;;;;;9.4;6.7;;;;;;;16.42;86.23;;;;;
2023/09/02 20:45:16;;;;;;;10.7;7.9;;;;;;;16.43;86.56;;;;;
2023/09/02 20:56:16;;;;;;;10.7;7.9;;;;;;;16.51;86.28;;;;;
2023/09/02 21:07:16;;;;;;;10.7;7.9;;;;;;;16.48;86.22;;;;;
2023/09/02 21:18:16;;;;;;;8.2;5.6;;;;;;;16.33;86.96;;;;;
2023/09/02 21:28:16;;;;;;;8.2;5.6;;;;;;;16.35;86.63;;;;;
2023/09/02 21:39:16;;;;;;;8.2;5.6;;;;;;;16.32;86.78;;;;;
2023/09/02 21:49:16;;;;;;;11.3;9.5;;;;;;;16.24;87.14;;;;;
2023/09/02 22:00:16;;;;;;;11.3;9.5;;;;;;;16.06;87.55;;;;;
2023/09/02 22:11:17;;;;;;;11.3;9.5;;;;;;;15.82;88.78;;;;;
2023/09/02 22:22:17;;;;;;;11.2;9.4;;;;;;;15.73;88.65;;;;;
2023/09/02 22:33:16;;;;;;;11.2;9.4;;;;;;;15.64;88.34;;;;;
2023/09/02 22:43:16;;;;;;;12;7.6;;;;;;;15.52;87.87;;;;;
2023/09/02 22:53:16;;;;;;;12;7.6;;;;;;;15.42;87.83;;;;;
2023/09/02 23:04:17;;;;;;;12;7.6;;;;;;;15.38;87.71;;;;;
2023/09/02 23:14:16;;;;;;;9.4;7.2;;;;;;;15.35;87.85;;;;;
2023/09/02 23:25:16;;;;;;;9.4;7.2;;;;;;;15.31;89.02;;;;;
2023/09/02 23:35:16;;;;;;;9.4;7.2;;;;;;;15.3;89.52;;;;;
2023/09/02 23:45:16;;;;;;;10.8;8.1;;;;;;;15.38;89.98;;;;;
2023/09/02 23:56:16;;;;;;;10.8;8.1;;;;;;;15.36;89.71;;;;;
